createdAt,value
2019-02-25T00:01:32.867Z,9.33
2019-02-25T00:04:03.593Z,5.53
2019-02-25T00:06:34.055Z,15.43
2019-02-25T00:09:05.583Z,8.00
2019-02-25T00:11:36.246Z,6.77
2019-02-25T00:14:07.028Z,6.27
2019-02-25T00:16:37.600Z,2.20
2019-02-25T00:19:08.229Z,6.10
2019-02-25T00:21:38.688Z,1.77
2019-02-25T00:24:09.280Z,3.57
2019-02-25T00:26:39.844Z,4.00
2019-02-25T00:29:10.389Z,8.27
2019-02-25T00:31:40.907Z,2.63
2019-02-25T00:34:11.443Z,2.00
2019-02-25T00:36:41.958Z,2.63
2019-02-25T00:39:12.601Z,1.60
2019-02-25T00:41:43.330Z,1.57
2019-02-25T00:44:13.865Z,1.33
2019-02-25T00:46:44.370Z,0.90
2019-02-25T00:49:14.922Z,2.37
2019-02-25T00:51:45.201Z,1.63
2019-02-25T00:54:15.773Z,1.13
2019-02-25T00:56:46.612Z,3.63
2019-02-25T00:59:17.028Z,2.13
2019-02-25T01:01:47.456Z,2.43
2019-02-25T01:04:17.989Z,4.10
2019-02-25T01:06:48.623Z,8.00
2019-02-25T01:09:19.018Z,1.53
2019-02-25T01:11:49.425Z,1.47
2019-02-25T01:14:19.775Z,3.03
2019-02-25T01:16:50.555Z,1.43
2019-02-25T01:19:21.420Z,1.53
2019-02-25T01:21:51.741Z,0.80
2019-02-25T01:24:22.270Z,1.50
2019-02-25T01:26:53.015Z,1.40
2019-02-25T01:29:23.442Z,1.70
2019-02-25T01:31:53.863Z,1.17
2019-02-25T01:34:24.297Z,1.17
2019-02-25T01:36:54.828Z,1.20
2019-02-25T01:39:25.482Z,0.80
2019-02-25T01:41:55.909Z,0.63
2019-02-25T01:44:26.306Z,0.67
2019-02-25T01:46:56.647Z,1.37
2019-02-25T01:49:27.158Z,1.40
2019-02-25T01:51:57.462Z,0.70
2019-02-25T01:54:28.116Z,1.37
2019-02-25T01:56:58.957Z,0.83
2019-02-25T01:59:29.676Z,1.33
2019-02-25T02:02:00.009Z,0.70
2019-02-25T02:04:30.746Z,1.30
2019-02-25T02:07:01.196Z,4.20
2019-02-25T02:09:31.499Z,6.70
2019-02-25T02:12:02.020Z,6.73
2019-02-25T02:14:32.541Z,1.40
2019-02-25T02:17:03.617Z,1.50
2019-02-25T02:19:34.141Z,1.73
2019-02-25T02:22:05.056Z,4.30
2019-02-25T02:24:35.466Z,1.73
2019-02-25T02:27:05.997Z,2.70
2019-02-25T02:29:36.582Z,4.70
2019-02-25T02:32:07.340Z,1.90
2019-02-25T02:34:37.846Z,4.33
2019-02-25T02:37:08.149Z,2.30
2019-02-25T02:39:38.554Z,6.37
2019-02-25T02:42:22.660Z,4.97
2019-02-25T02:45:31.243Z,1.73
2019-02-25T02:48:10.797Z,3.27
2019-02-25T02:50:41.285Z,2.10
2019-02-25T02:53:11.691Z,1.30
2019-02-25T02:55:42.484Z,1.23
2019-02-25T02:58:12.881Z,1.40
2019-02-25T03:00:43.294Z,1.10
2019-02-25T03:03:13.703Z,1.33
2019-02-25T03:05:44.160Z,2.00
2019-02-25T03:08:14.691Z,1.00
2019-02-25T03:10:45.363Z,2.10
2019-02-25T03:13:15.657Z,2.13
2019-02-25T03:15:46.052Z,1.93
2019-02-25T03:18:16.840Z,2.90
2019-02-25T03:20:47.346Z,1.67
2019-02-25T03:23:17.742Z,1.53
2019-02-25T03:25:48.172Z,4.80
2019-02-25T03:28:18.743Z,1.17
2019-02-25T03:30:49.246Z,3.60
2019-02-25T03:33:19.805Z,1.23
2019-02-25T03:35:50.482Z,1.60
2019-02-25T03:38:20.913Z,4.37
2019-02-25T03:40:51.346Z,3.00
2019-02-25T03:43:21.972Z,2.83
2019-02-25T03:45:52.710Z,4.93
2019-02-25T03:48:23.019Z,191.87
2019-02-25T03:50:53.497Z,9.67
2019-02-25T03:53:23.895Z,2.87
2019-02-25T03:58:52.531Z,1.80
2019-02-25T04:01:23.250Z,1.83
2019-02-25T04:03:59.651Z,5.23
2019-02-25T04:06:29.992Z,3.33
2019-02-25T04:09:00.370Z,4.20
2019-02-25T04:11:30.777Z,3.20
2019-02-25T04:14:01.169Z,4.30
2019-02-25T04:16:31.745Z,1.97
2019-02-25T04:19:02.387Z,2.70
2019-02-25T04:21:38.490Z,3.43
2019-02-25T04:24:08.858Z,3.87
2019-02-25T04:26:39.161Z,3.50
2019-02-25T04:29:09.591Z,3.03
2019-02-25T04:31:40.311Z,5.10
2019-02-25T04:34:10.685Z,3.70
2019-02-25T04:36:41.413Z,16.00
2019-02-25T04:39:11.842Z,4.50
2019-02-25T04:41:42.460Z,2.80
2019-02-25T04:44:12.880Z,4.20
2019-02-25T04:47:03.413Z,5.03
2019-02-25T04:49:33.892Z,3.47
2019-02-25T04:52:04.212Z,3.20
2019-02-25T04:54:34.746Z,1.97
2019-02-25T04:57:04.938Z,2.60
2019-02-25T04:59:34.817Z,2.00
2019-02-25T05:02:04.801Z,3.50
2019-02-25T05:04:34.977Z,4.67
2019-02-25T05:07:05.180Z,2.40
2019-02-25T05:09:35.193Z,2.33
2019-02-25T05:12:05.196Z,9.93
2019-02-25T05:14:35.375Z,12.13
2019-02-25T05:17:05.587Z,9.07
2019-02-25T05:19:35.478Z,3.83
2019-02-25T05:22:05.465Z,9.97
2019-02-25T05:24:35.648Z,3.13
2019-02-25T05:27:05.731Z,7.60
2019-02-25T05:29:35.935Z,26.07
2019-02-25T05:32:06.156Z,3.33
2019-02-25T05:34:36.050Z,10.73
2019-02-25T05:37:06.142Z,3.87
2019-02-25T05:39:36.498Z,4.67
2019-02-25T05:42:07.155Z,4.93
2019-02-25T05:44:37.333Z,4.10
2019-02-25T05:47:07.314Z,3.30
2019-02-25T05:49:37.995Z,1.27
2019-02-25T05:52:08.228Z,3.83
2019-02-25T05:54:38.114Z,2.77
2019-02-25T05:57:08.217Z,5.90
2019-02-25T05:59:38.420Z,5.03
2019-02-25T06:02:08.617Z,5.17
2019-02-25T06:04:38.702Z,3.07
2019-02-25T06:07:10.465Z,4.70
2019-02-25T06:09:40.857Z,1.00
2019-02-25T06:12:10.853Z,5.27
2019-02-25T06:14:41.054Z,9.77
2019-02-25T06:17:11.371Z,6.00
2019-02-25T06:19:41.262Z,1.97
2019-02-25T06:22:11.351Z,3.87
2019-02-25T06:24:41.549Z,2.80
2019-02-25T06:27:11.758Z,7.10
2019-02-25T06:29:41.635Z,2.30
2019-02-25T06:32:11.612Z,2.70
2019-02-25T06:34:41.909Z,3.47
2019-02-25T06:37:12.120Z,8.77
2019-02-25T06:39:42.019Z,1.90
2019-02-25T06:42:11.905Z,3.70
2019-02-25T06:44:42.127Z,11.00
2019-02-25T06:47:12.310Z,4.00
2019-02-25T06:49:42.459Z,2.20
2019-02-25T06:52:12.352Z,3.50
2019-02-25T06:54:42.539Z,2.80
2019-02-25T06:57:12.719Z,7.87
2019-02-25T06:59:42.621Z,4.60
2019-02-25T07:02:12.597Z,8.10
2019-02-25T07:05:07.976Z,3.33
2019-02-25T07:07:55.706Z,5.20
2019-02-25T07:10:53.476Z,8.13
2019-02-25T07:13:44.993Z,14.57
2019-02-25T07:16:32.865Z,6.10
2019-02-25T07:19:18.991Z,5.83
2019-02-25T07:22:07.704Z,3.90
2019-02-25T07:25:02.782Z,2.83
2019-02-25T07:27:50.957Z,11.40
2019-02-25T07:30:54.831Z,5.30
2019-02-25T07:33:42.190Z,10.73
2019-02-25T07:36:43.445Z,3.70
2019-02-25T07:39:35.489Z,3.30
2019-02-25T07:42:36.486Z,4.90
2019-02-25T07:45:33.917Z,7.80
2019-02-25T07:48:29.135Z,10.07
2019-02-25T07:51:14.332Z,5.60
2019-02-25T07:54:06.955Z,5.70
2019-02-25T07:57:11.642Z,6.60
2019-02-25T07:59:59.443Z,2.67
2019-02-25T08:02:39.650Z,2.80
2019-02-25T08:05:37.843Z,3.03
2019-02-25T08:08:16.336Z,1.30
2019-02-25T08:11:08.358Z,1.67
2019-02-25T08:13:53.942Z,2.37
2019-02-25T08:16:43.265Z,3.10
2019-02-25T08:19:41.760Z,2.67
2019-02-25T08:22:45.925Z,4.43
2019-02-25T08:25:48.399Z,2.33
2019-02-25T08:28:52.559Z,2.50
2019-02-25T08:31:47.569Z,2.60
2019-02-25T08:34:39.210Z,1.10
2019-02-25T08:37:48.784Z,2.17
2019-02-25T08:40:38.771Z,3.23
2019-02-25T08:43:43.540Z,2.33
2019-02-25T08:46:22.297Z,7.80
2019-02-25T08:49:05.004Z,2.63
2019-02-25T08:51:35.307Z,6.17
2019-02-25T08:54:05.329Z,4.30
2019-02-25T08:56:35.488Z,5.60
2019-02-25T08:59:05.682Z,4.67
2019-02-25T09:01:35.775Z,4.80
2019-02-25T09:04:05.970Z,7.97
2019-02-25T09:06:36.169Z,8.77
2019-02-25T09:09:07.711Z,9.40
2019-02-25T09:11:37.819Z,11.27
2019-02-25T09:14:08.018Z,5.43
2019-02-25T09:16:38.223Z,6.67
2019-02-25T09:19:08.137Z,11.67
2019-02-25T09:21:38.022Z,8.63
2019-02-25T09:24:08.196Z,11.80
2019-02-25T09:26:38.385Z,7.53
2019-02-25T09:29:08.378Z,12.73
2019-02-25T09:31:38.281Z,11.63
2019-02-25T09:34:08.475Z,10.50
2019-02-25T09:36:38.663Z,6.00
2019-02-25T09:39:13.007Z,4.03
2019-02-25T09:41:43.221Z,4.70
2019-02-25T09:44:13.219Z,8.40
2019-02-25T09:46:43.229Z,13.03
2019-02-25T09:49:13.492Z,7.30
2019-02-25T09:51:43.997Z,6.30
2019-02-25T09:54:14.334Z,14.63
2019-02-25T09:56:44.509Z,11.73
2019-02-25T09:59:14.801Z,2.03
2019-02-25T10:01:45.018Z,2.30
2019-02-25T10:04:15.036Z,9.13
2019-02-25T10:06:45.013Z,4.67
2019-02-25T10:09:15.214Z,4.40
2019-02-25T10:11:45.481Z,10.80
2019-02-25T10:14:15.356Z,6.93
2019-02-25T10:16:45.352Z,17.83
2019-02-25T10:19:15.550Z,10.50
2019-02-25T10:21:45.638Z,9.73
2019-02-25T10:24:17.151Z,10.03
2019-02-25T10:26:47.419Z,2.93
2019-02-25T10:29:17.409Z,3.10
2019-02-25T10:31:47.404Z,3.10
2019-02-25T10:34:18.052Z,6.00
2019-02-25T10:36:50.169Z,8.83
2019-02-25T10:39:20.067Z,3.63
2019-02-25T10:41:51.171Z,2.63
2019-02-25T10:44:21.878Z,3.47
2019-02-25T10:46:52.450Z,9.90
2019-02-25T10:49:24.425Z,15.83
2019-02-25T10:51:55.527Z,4.97
2019-02-25T10:54:26.009Z,8.53
2019-02-25T10:57:02.952Z,3.23
2019-02-25T10:59:34.648Z,2.37
2019-02-25T11:02:05.088Z,5.93
2019-02-25T11:04:35.093Z,4.73
2019-02-25T11:07:07.281Z,4.60
2019-02-25T11:09:51.372Z,6.10
2019-02-25T11:12:23.549Z,9.03
2019-02-25T11:14:53.385Z,7.10
2019-02-25T11:17:24.432Z,3.73
2019-02-25T11:19:56.569Z,2.17
2019-02-25T11:22:26.976Z,5.93
2019-02-25T11:24:57.802Z,2.73
2019-02-25T11:27:28.588Z,1.80
2019-02-25T11:29:59.793Z,4.07
2019-02-25T11:32:30.056Z,9.23
2019-02-25T11:35:01.299Z,17.43
2019-02-25T11:37:31.925Z,20.77
2019-02-25T11:40:04.279Z,15.07
2019-02-25T11:42:34.411Z,35.33
2019-02-25T11:45:05.680Z,4.90
2019-02-25T11:47:36.058Z,3.70
2019-02-25T11:50:06.776Z,6.23
2019-02-25T11:52:36.990Z,6.03
2019-02-25T11:55:08.055Z,5.43
2019-02-25T11:57:38.277Z,5.83
2019-02-25T12:00:14.945Z,2.03
2019-02-25T12:02:45.558Z,4.03
2019-02-25T12:05:17.188Z,6.97
2019-02-25T12:07:48.033Z,5.53
2019-02-25T12:10:18.664Z,17.87
2019-02-25T12:12:48.688Z,6.40
2019-02-25T12:15:18.882Z,6.93
2019-02-25T12:17:49.282Z,7.40
2019-02-25T12:20:19.823Z,10.83
2019-02-25T12:22:50.167Z,63.17
2019-02-25T12:25:20.416Z,132.17
2019-02-25T12:27:50.962Z,216.03
2019-02-25T12:30:21.595Z,77.33
2019-02-25T12:32:52.129Z,35.63
2019-02-25T12:35:22.859Z,23.43
2019-02-25T12:37:53.590Z,31.20
2019-02-25T12:40:24.169Z,17.13
2019-02-25T12:42:54.272Z,60.50
2019-02-25T12:45:24.559Z,12.17
2019-02-25T12:47:55.088Z,74.10
2019-02-25T12:50:25.491Z,8.10
2019-02-25T12:52:56.318Z,18.00
2019-02-25T12:55:27.158Z,44.10
2019-02-25T12:57:57.697Z,17.57
2019-02-25T13:00:27.686Z,13.03
2019-02-25T13:02:58.035Z,7.83
2019-02-25T13:05:28.027Z,9.10
2019-02-25T13:07:57.936Z,4.90
2019-02-25T13:10:28.225Z,11.40
2019-02-25T13:12:58.427Z,7.07
2019-02-25T13:15:28.533Z,20.03
2019-02-25T13:18:00.130Z,6.13
2019-02-25T13:20:30.843Z,5.50
2019-02-25T13:23:01.039Z,5.00
2019-02-25T13:25:30.946Z,4.47
2019-02-25T13:28:02.084Z,7.30
2019-02-25T13:30:32.783Z,8.10
2019-02-25T13:33:03.053Z,9.00
2019-02-25T13:35:33.060Z,8.60
2019-02-25T13:38:02.972Z,4.90
2019-02-25T13:40:33.544Z,6.03
2019-02-25T13:43:03.618Z,8.83
2019-02-25T13:45:33.891Z,6.83
2019-02-25T13:48:04.105Z,42.03
2019-02-25T13:50:34.195Z,16.13
2019-02-25T13:53:04.629Z,15.33
2019-02-25T13:55:35.016Z,7.23
2019-02-25T13:58:05.389Z,8.40
2019-02-25T14:00:35.648Z,16.43
2019-02-25T14:03:05.862Z,14.87
2019-02-25T14:05:36.158Z,25.83
2019-02-25T14:08:06.363Z,13.73
2019-02-25T14:10:36.374Z,16.93
2019-02-25T14:13:06.690Z,16.97
2019-02-25T14:15:36.889Z,10.00
2019-02-25T14:18:07.164Z,21.37
2019-02-25T14:20:37.062Z,20.27
2019-02-25T14:23:07.269Z,28.20
2019-02-25T14:25:38.389Z,28.40
2019-02-25T14:28:09.048Z,36.63
2019-02-25T14:30:40.026Z,7.37
2019-02-25T14:33:12.672Z,15.20
2019-02-25T14:35:42.263Z,15.40
2019-02-25T14:38:15.892Z,22.97
2019-02-25T14:40:46.601Z,22.77
2019-02-25T14:43:17.676Z,8.83
2019-02-25T14:45:53.089Z,18.47
2019-02-25T14:48:21.048Z,61.43
2019-02-25T14:50:52.130Z,19.03
2019-02-25T14:53:22.588Z,15.13
2019-02-25T14:55:55.281Z,15.30
2019-02-25T14:58:24.636Z,37.63
2019-02-25T15:00:55.006Z,23.17
2019-02-25T15:03:27.006Z,27.00
2019-02-25T15:05:59.146Z,25.90
2019-02-25T15:08:30.627Z,49.40
2019-02-25T15:11:02.404Z,27.43
2019-02-25T15:13:35.048Z,27.00
2019-02-25T15:16:05.331Z,69.43
2019-02-25T15:18:35.818Z,38.90
2019-02-25T15:21:11.687Z,14.50
2019-02-25T15:23:42.773Z,14.90
2019-02-25T15:26:15.096Z,24.83
2019-02-25T15:28:44.894Z,20.67
2019-02-25T15:31:16.502Z,10.43
2019-02-25T15:33:47.200Z,20.70
2019-02-25T15:36:17.876Z,17.03
2019-02-25T15:38:49.313Z,19.03
2019-02-25T15:41:19.449Z,12.20
2019-02-25T15:43:49.730Z,21.50
2019-02-25T15:46:22.204Z,36.90
2019-02-25T15:48:51.691Z,91.90
2019-02-25T15:51:22.085Z,63.80
2019-02-25T15:53:54.103Z,44.37
2019-02-25T15:56:24.643Z,47.10
2019-02-25T15:58:54.524Z,52.83
2019-02-25T16:01:59.961Z,64.73
2019-02-25T16:04:31.860Z,69.20
2019-02-25T16:07:05.647Z,105.93
2019-02-25T16:09:34.024Z,75.87
2019-02-25T16:12:05.871Z,113.47
2019-02-25T16:14:38.865Z,98.57
2019-02-25T16:17:08.727Z,144.30
2019-02-25T16:19:46.442Z,153.87
2019-02-25T16:22:11.848Z,171.40
2019-02-25T16:24:43.606Z,153.97
2019-02-25T16:27:14.435Z,88.47
2019-02-25T16:29:44.725Z,86.07
2019-02-25T16:32:16.903Z,89.13
2019-02-25T16:34:46.734Z,132.77
2019-02-25T16:48:24.222Z,138.53
2019-02-25T16:50:52.469Z,134.00
2019-02-25T16:53:22.740Z,130.97
2019-02-25T16:55:53.132Z,183.97
2019-02-25T16:58:23.149Z,243.43
2019-02-25T17:00:56.022Z,228.57
2019-02-25T17:03:25.672Z,147.70
2019-02-25T17:05:55.764Z,126.20
2019-02-25T17:08:26.566Z,110.70
2019-02-25T17:10:59.818Z,168.43
2019-02-25T17:13:32.465Z,123.53
2019-02-25T17:16:02.704Z,121.50
2019-02-25T17:18:33.315Z,117.70
2019-02-25T17:21:05.174Z,100.97
2019-02-25T17:23:37.045Z,106.40
2019-02-25T17:26:07.719Z,49.13
2019-02-25T17:28:39.139Z,18.27
2019-02-25T17:31:11.127Z,20.07
2019-02-25T17:33:41.056Z,8.73
2019-02-25T17:36:12.417Z,9.07
2019-02-25T17:38:44.919Z,20.13
2019-02-25T17:41:15.075Z,40.23
2019-02-25T17:43:45.069Z,29.13
2019-02-25T17:46:15.275Z,9.97
2019-02-25T17:48:46.131Z,13.10
2019-02-25T17:51:18.347Z,7.53
2019-02-25T17:53:49.919Z,6.47
2019-02-25T17:56:20.710Z,9.10
2019-02-25T17:58:52.016Z,6.40
2019-02-25T18:01:24.179Z,5.63
2019-02-25T18:03:53.971Z,8.60
2019-02-25T18:06:29.467Z,7.70
2019-02-25T18:08:57.684Z,10.63
2019-02-25T18:11:28.102Z,5.67
2019-02-25T18:13:58.264Z,9.63
2019-02-25T18:16:28.464Z,6.73
2019-02-25T18:18:58.666Z,5.13
2019-02-25T18:21:29.036Z,7.60
2019-02-25T18:23:59.129Z,9.97
2019-02-25T18:26:31.102Z,6.27
2019-02-25T18:29:01.514Z,12.47
2019-02-25T18:31:32.094Z,6.93
2019-02-25T18:34:02.302Z,10.37
2019-02-25T18:36:33.215Z,16.60
2019-02-25T18:39:03.776Z,26.10
2019-02-25T18:41:34.370Z,13.53
2019-02-25T18:44:05.311Z,9.83
2019-02-25T18:46:36.560Z,46.23
2019-02-25T18:49:07.374Z,34.70
2019-02-25T18:51:39.473Z,48.43
2019-02-25T18:54:09.858Z,41.43
2019-02-25T18:56:42.058Z,17.40
2019-02-25T18:59:15.523Z,36.13
2019-02-25T19:01:45.359Z,29.23
2019-02-25T19:04:17.579Z,23.73
2019-02-25T19:06:47.919Z,17.87
2019-02-25T19:09:25.110Z,36.30
2019-02-25T19:11:56.163Z,44.70
2019-02-25T19:14:28.614Z,59.40
2019-02-25T19:16:59.788Z,58.63
2019-02-25T19:19:33.722Z,57.50
2019-02-25T19:22:02.116Z,51.97
2019-02-25T19:24:33.602Z,53.70
2019-02-25T19:27:06.578Z,85.10
2019-02-25T19:29:36.813Z,45.23
2019-02-25T19:32:07.004Z,55.13
2019-02-25T19:34:39.233Z,35.53
2019-02-25T19:37:10.340Z,37.57
2019-02-25T19:39:42.098Z,47.97
2019-02-25T19:42:15.451Z,62.43
2019-02-25T19:44:44.514Z,91.13
2019-02-25T19:47:16.732Z,49.80
2019-02-25T19:49:46.680Z,33.67
2019-02-25T19:52:17.274Z,28.47
2019-02-25T19:54:48.788Z,31.00
2019-02-25T19:57:21.017Z,20.77
2019-02-25T19:59:52.894Z,32.87
2019-02-25T20:02:24.661Z,24.87
2019-02-25T20:04:54.772Z,20.77
2019-02-25T20:07:27.925Z,45.37
2019-02-25T20:09:57.860Z,17.63
2019-02-25T20:12:28.396Z,28.23
2019-02-25T20:14:58.660Z,25.37
2019-02-25T20:17:30.635Z,14.00
2019-02-25T20:20:02.952Z,26.50
2019-02-25T20:22:34.473Z,19.83
2019-02-25T20:25:05.852Z,26.13
2019-02-25T20:27:36.287Z,20.03
2019-02-25T20:30:08.175Z,14.93
2019-02-25T20:32:38.976Z,25.90
2019-02-25T20:35:14.008Z,23.77
2019-02-25T20:37:43.714Z,14.27
2019-02-25T20:40:17.079Z,35.20
2019-02-25T20:42:49.077Z,21.50
2019-02-25T20:45:23.001Z,18.93
2019-02-25T20:47:52.245Z,25.83
2019-02-25T20:50:23.583Z,38.90
2019-02-25T20:52:53.691Z,33.03
2019-02-25T20:55:24.988Z,33.70
2019-02-25T20:57:55.976Z,28.10
2019-02-25T21:00:26.383Z,57.63
2019-02-25T21:02:56.569Z,37.73
2019-02-25T21:05:27.369Z,31.40
2019-02-25T21:07:59.745Z,21.63
2019-02-25T21:10:32.600Z,24.10
2019-02-25T21:13:02.316Z,13.27
2019-02-25T21:15:35.468Z,12.57
2019-02-25T21:18:07.530Z,22.17
2019-02-25T21:20:36.323Z,19.70
2019-02-25T21:23:08.366Z,33.67
2019-02-25T21:25:38.743Z,27.13
2019-02-25T21:28:09.564Z,34.93
2019-02-25T21:30:41.794Z,29.93
2019-02-25T21:33:15.317Z,16.87
2019-02-25T21:35:44.510Z,31.53
2019-02-25T21:38:14.593Z,14.10
2019-02-25T21:40:46.168Z,21.33
2019-02-25T21:43:18.577Z,12.87
2019-02-25T21:45:50.426Z,25.17
2019-02-25T21:48:23.050Z,16.97
2019-02-25T21:50:52.009Z,17.83
2019-02-25T21:53:21.901Z,17.73
2019-02-25T21:55:53.557Z,14.20
2019-02-25T21:58:25.433Z,23.37
2019-02-25T22:00:55.854Z,14.07
2019-02-25T22:03:25.891Z,6.90
2019-02-25T22:05:58.775Z,8.60
2019-02-25T22:08:29.047Z,13.60
2019-02-25T22:11:11.996Z,7.10
2019-02-25T22:13:31.712Z,22.83
2019-02-25T22:16:03.429Z,15.77
2019-02-25T22:18:34.152Z,10.60
2019-02-25T22:21:09.237Z,15.67
2019-02-25T22:23:37.313Z,9.97
2019-02-25T22:26:07.433Z,9.57
2019-02-25T22:28:39.418Z,8.40
2019-02-25T22:31:10.807Z,8.60
2019-02-25T22:33:41.240Z,5.30
2019-02-25T22:36:11.449Z,8.90
2019-02-25T22:38:41.412Z,4.40
2019-02-25T22:41:11.307Z,11.87
2019-02-25T22:43:43.736Z,14.63
2019-02-25T22:46:13.406Z,24.50
2019-02-25T22:48:45.075Z,14.43
2019-02-25T22:51:15.026Z,15.43
2019-02-25T22:53:45.216Z,11.50
2019-02-25T22:56:15.871Z,14.33
2019-02-25T22:58:47.088Z,10.57
2019-02-25T23:01:18.115Z,13.90
2019-02-25T23:03:50.540Z,11.93
2019-02-25T23:06:21.322Z,14.30
2019-02-25T23:08:53.401Z,10.27
2019-02-25T23:11:26.119Z,13.13
2019-02-25T23:13:56.501Z,9.93
2019-02-25T23:16:26.683Z,9.77
2019-02-25T23:18:56.667Z,5.50
2019-02-25T23:21:28.793Z,12.90
2019-02-25T23:24:00.488Z,16.70
2019-02-25T23:26:30.497Z,9.47
2019-02-25T23:29:00.692Z,8.93
2019-02-25T23:31:30.759Z,13.90
2019-02-25T23:34:00.946Z,5.20
2019-02-25T23:36:31.139Z,12.10
2019-02-25T23:39:01.703Z,5.30
2019-02-25T23:41:36.274Z,10.90
2019-02-25T23:44:04.672Z,3.73
2019-02-25T23:46:37.152Z,13.43
2019-02-25T23:49:06.683Z,6.57
2019-02-25T23:51:37.750Z,10.70
2019-02-25T23:54:11.845Z,6.67
2019-02-25T23:56:40.410Z,6.93
2019-02-25T23:59:12.696Z,4.50
